sensor_id;sensor_type;location;lat;lon;timestamp;P1;durP1;ratioP1;P2;durP2;ratioP2
64367;SDS011;50692;53.314;-6.300;2023-07-29T00:02:02;3.17;;;1.45;;
64367;SDS011;50692;53.314;-6.300;2023-07-29T00:04:50;4.32;;;1.60;;
64367;SDS011;50692;53.314;-6.300;2023-07-29T00:07:35;10.18;;;2.08;;
64367;SDS011;50692;53.314;-6.300;2023-07-29T00:10:21;3.95;;;1.88;;
64367;SDS011;50692;53.314;-6.300;2023-07-29T00:13:08;6.70;;;1.50;;
64367;SDS011;50692;53.314;-6.300;2023-07-29T00:15:54;3.60;;;1.30;;
64367;SDS011;50692;53.314;-6.300;2023-07-29T00:18:41;4.93;;;2.03;;
64367;SDS011;50692;53.314;-6.300;2023-07-29T00:21:26;4.03;;;1.80;;
64367;SDS011;50692;53.314;-6.300;2023-07-29T00:24:12;3.00;;;1.48;;
64367;SDS011;50692;53.314;-6.300;2023-07-29T00:26:58;6.25;;;1.90;;
64367;SDS011;50692;53.314;-6.300;2023-07-29T00:29:44;4.05;;;1.70;;
64367;SDS011;50692;53.314;-6.300;2023-07-29T00:32:29;5.15;;;1.60;;
64367;SDS011;50692;53.314;-6.300;2023-07-29T00:35:16;4.95;;;1.77;;
64367;SDS011;50692;53.314;-6.300;2023-07-29T00:38:02;3.33;;;1.55;;
64367;SDS011;50692;53.314;-6.300;2023-07-29T00:40:48;3.22;;;1.40;;
64367;SDS011;50692;53.314;-6.300;2023-07-29T00:43:34;5.63;;;1.42;;
64367;SDS011;50692;53.314;-6.300;2023-07-29T00:46:20;3.08;;;1.50;;
64367;SDS011;50692;53.314;-6.300;2023-07-29T00:49:07;4.53;;;1.60;;
64367;SDS011;50692;53.314;-6.300;2023-07-29T00:51:53;4.88;;;1.70;;
64367;SDS011;50692;53.314;-6.300;2023-07-29T00:54:39;4.07;;;1.65;;
64367;SDS011;50692;53.314;-6.300;2023-07-29T00:57:25;5.07;;;1.70;;
64367;SDS011;50692;53.314;-6.300;2023-07-29T01:00:14;5.43;;;1.80;;
64367;SDS011;50692;53.314;-6.300;2023-07-29T01:03:01;4.30;;;1.67;;
64367;SDS011;50692;53.314;-6.300;2023-07-29T01:06:11;4.78;;;1.60;;
64367;SDS011;50692;53.314;-6.300;2023-07-29T01:09:04;4.53;;;1.83;;
64367;SDS011;50692;53.314;-6.300;2023-07-29T01:12:21;6.55;;;1.88;;
64367;SDS011;50692;53.314;-6.300;2023-07-29T01:15:12;4.85;;;1.60;;
64367;SDS011;50692;53.314;-6.300;2023-07-29T01:18:22;4.70;;;1.92;;
64367;SDS011;50692;53.314;-6.300;2023-07-29T01:21:11;3.65;;;1.80;;
64367;SDS011;50692;53.314;-6.300;2023-07-29T01:23:59;4.95;;;1.70;;
64367;SDS011;50692;53.314;-6.300;2023-07-29T01:26:45;5.00;;;1.85;;
64367;SDS011;50692;53.314;-6.300;2023-07-29T01:29:31;5.72;;;2.00;;
64367;SDS011;50692;53.314;-6.300;2023-07-29T01:32:19;4.85;;;1.88;;
64367;SDS011;50692;53.314;-6.300;2023-07-29T01:35:30;7.03;;;1.97;;
64367;SDS011;50692;53.314;-6.300;2023-07-29T01:38:19;6.78;;;1.80;;
64367;SDS011;50692;53.314;-6.300;2023-07-29T01:41:09;8.10;;;2.38;;
64367;SDS011;50692;53.314;-6.300;2023-07-29T01:43:56;7.60;;;2.40;;
64367;SDS011;50692;53.314;-6.300;2023-07-29T01:46:43;3.88;;;1.73;;
64367;SDS011;50692;53.314;-6.300;2023-07-29T01:49:29;6.40;;;1.77;;
64367;SDS011;50692;53.314;-6.300;2023-07-29T01:52:15;3.42;;;1.75;;
64367;SDS011;50692;53.314;-6.300;2023-07-29T01:55:01;5.38;;;2.42;;
64367;SDS011;50692;53.314;-6.300;2023-07-29T01:57:47;8.02;;;2.10;;
64367;SDS011;50692;53.314;-6.300;2023-07-29T02:00:33;4.75;;;1.83;;
64367;SDS011;50692;53.314;-6.300;2023-07-29T02:03:19;9.63;;;2.17;;
64367;SDS011;50692;53.314;-6.300;2023-07-29T02:06:04;6.07;;;1.95;;
64367;SDS011;50692;53.314;-6.300;2023-07-29T02:08:50;6.35;;;2.08;;
64367;SDS011;50692;53.314;-6.300;2023-07-29T02:11:36;7.47;;;2.17;;
64367;SDS011;50692;53.314;-6.300;2023-07-29T02:14:22;4.70;;;1.77;;
64367;SDS011;50692;53.314;-6.300;2023-07-29T02:17:08;7.43;;;2.15;;
64367;SDS011;50692;53.314;-6.300;2023-07-29T02:19:54;5.85;;;2.30;;
64367;SDS011;50692;53.314;-6.300;2023-07-29T02:22:40;6.38;;;2.50;;
64367;SDS011;50692;53.314;-6.300;2023-07-29T02:25:25;6.43;;;2.22;;
64367;SDS011;50692;53.314;-6.300;2023-07-29T02:28:11;4.20;;;1.85;;
64367;SDS011;50692;53.314;-6.300;2023-07-29T02:31:13;5.03;;;2.53;;
64367;SDS011;50692;53.314;-6.300;2023-07-29T02:36:52;6.68;;;2.10;;
64367;SDS011;50692;53.314;-6.300;2023-07-29T02:39:38;7.15;;;2.05;;
64367;SDS011;50692;53.314;-6.300;2023-07-29T02:42:24;5.57;;;1.88;;
64367;SDS011;50692;53.314;-6.300;2023-07-29T02:45:10;5.05;;;1.85;;
64367;SDS011;50692;53.314;-6.300;2023-07-29T02:47:57;6.95;;;2.00;;
64367;SDS011;50692;53.314;-6.300;2023-07-29T02:50:42;6.63;;;2.22;;
64367;SDS011;50692;53.314;-6.300;2023-07-29T02:53:28;9.48;;;2.42;;
64367;SDS011;50692;53.314;-6.300;2023-07-29T02:56:14;6.85;;;1.77;;
64367;SDS011;50692;53.314;-6.300;2023-07-29T02:59:00;3.03;;;1.92;;
64367;SDS011;50692;53.314;-6.300;2023-07-29T03:01:46;8.35;;;2.22;;
64367;SDS011;50692;53.314;-6.300;2023-07-29T03:04:33;4.60;;;2.20;;
64367;SDS011;50692;53.314;-6.300;2023-07-29T03:07:19;4.50;;;2.00;;
64367;SDS011;50692;53.314;-6.300;2023-07-29T03:10:05;5.47;;;2.05;;
64367;SDS011;50692;53.314;-6.300;2023-07-29T03:12:54;4.60;;;2.10;;
64367;SDS011;50692;53.314;-6.300;2023-07-29T03:15:43;5.35;;;2.22;;
64367;SDS011;50692;53.314;-6.300;2023-07-29T03:18:28;9.20;;;2.60;;
64367;SDS011;50692;53.314;-6.300;2023-07-29T03:21:14;7.78;;;2.35;;
64367;SDS011;50692;53.314;-6.300;2023-07-29T03:24:00;7.63;;;2.08;;
64367;SDS011;50692;53.314;-6.300;2023-07-29T03:26:46;5.20;;;2.08;;
64367;SDS011;50692;53.314;-6.300;2023-07-29T03:29:32;8.23;;;2.47;;
64367;SDS011;50692;53.314;-6.300;2023-07-29T03:32:18;5.85;;;2.50;;
64367;SDS011;50692;53.314;-6.300;2023-07-29T03:35:03;5.68;;;2.08;;
64367;SDS011;50692;53.314;-6.300;2023-07-29T03:37:49;6.15;;;1.80;;
64367;SDS011;50692;53.314;-6.300;2023-07-29T03:40:35;5.75;;;2.22;;
64367;SDS011;50692;53.314;-6.300;2023-07-29T03:43:21;6.60;;;2.33;;
64367;SDS011;50692;53.314;-6.300;2023-07-29T03:46:07;6.57;;;1.90;;
64367;SDS011;50692;53.314;-6.300;2023-07-29T03:48:53;6.63;;;2.13;;
64367;SDS011;50692;53.314;-6.300;2023-07-29T03:51:38;6.65;;;2.55;;
64367;SDS011;50692;53.314;-6.300;2023-07-29T03:54:24;15.95;;;2.50;;
64367;SDS011;50692;53.314;-6.300;2023-07-29T03:57:10;4.88;;;2.25;;
64367;SDS011;50692;53.314;-6.300;2023-07-29T03:59:56;5.05;;;2.20;;
64367;SDS011;50692;53.314;-6.300;2023-07-29T04:02:42;4.38;;;2.22;;
64367;SDS011;50692;53.314;-6.300;2023-07-29T04:05:28;7.80;;;2.20;;
64367;SDS011;50692;53.314;-6.300;2023-07-29T04:08:13;7.55;;;2.20;;
64367;SDS011;50692;53.314;-6.300;2023-07-29T04:10:59;7.20;;;3.00;;
64367;SDS011;50692;53.314;-6.300;2023-07-29T04:13:45;5.68;;;2.08;;
64367;SDS011;50692;53.314;-6.300;2023-07-29T04:16:31;7.97;;;2.20;;
64367;SDS011;50692;53.314;-6.300;2023-07-29T04:19:17;5.43;;;2.25;;
64367;SDS011;50692;53.314;-6.300;2023-07-29T04:22:02;6.72;;;2.30;;
64367;SDS011;50692;53.314;-6.300;2023-07-29T04:24:48;5.68;;;2.10;;
64367;SDS011;50692;53.314;-6.300;2023-07-29T04:27:34;8.07;;;2.30;;
64367;SDS011;50692;53.314;-6.300;2023-07-29T04:30:20;5.60;;;2.08;;
64367;SDS011;50692;53.314;-6.300;2023-07-29T04:33:06;7.05;;;2.58;;
64367;SDS011;50692;53.314;-6.300;2023-07-29T04:35:52;5.80;;;2.20;;
64367;SDS011;50692;53.314;-6.300;2023-07-29T04:38:37;7.72;;;2.35;;
64367;SDS011;50692;53.314;-6.300;2023-07-29T04:41:23;6.13;;;2.10;;
64367;SDS011;50692;53.314;-6.300;2023-07-29T04:44:09;6.20;;;2.40;;
64367;SDS011;50692;53.314;-6.300;2023-07-29T04:46:55;9.38;;;2.50;;
64367;SDS011;50692;53.314;-6.300;2023-07-29T04:49:41;7.72;;;2.33;;
64367;SDS011;50692;53.314;-6.300;2023-07-29T04:52:27;9.77;;;2.45;;
64367;SDS011;50692;53.314;-6.300;2023-07-29T04:55:12;5.70;;;2.22;;
64367;SDS011;50692;53.314;-6.300;2023-07-29T04:57:58;5.75;;;1.73;;
64367;SDS011;50692;53.314;-6.300;2023-07-29T05:00:48;6.68;;;2.28;;
64367;SDS011;50692;53.314;-6.300;2023-07-29T05:03:34;9.50;;;2.55;;
64367;SDS011;50692;53.314;-6.300;2023-07-29T05:06:20;6.57;;;2.20;;
64367;SDS011;50692;53.314;-6.300;2023-07-29T05:09:13;5.38;;;2.00;;
64367;SDS011;50692;53.314;-6.300;2023-07-29T05:12:03;5.68;;;2.00;;
64367;SDS011;50692;53.314;-6.300;2023-07-29T05:14:49;9.05;;;2.45;;
64367;SDS011;50692;53.314;-6.300;2023-07-29T05:17:35;8.35;;;2.03;;
64367;SDS011;50692;53.314;-6.300;2023-07-29T05:20:20;5.95;;;1.80;;
64367;SDS011;50692;53.314;-6.300;2023-07-29T05:23:06;5.25;;;3.00;;
64367;SDS011;50692;53.314;-6.300;2023-07-29T05:25:52;8.30;;;2.35;;
64367;SDS011;50692;53.314;-6.300;2023-07-29T05:28:38;6.85;;;2.42;;
64367;SDS011;50692;53.314;-6.300;2023-07-29T05:31:24;6.53;;;2.20;;
64367;SDS011;50692;53.314;-6.300;2023-07-29T05:34:09;6.07;;;2.05;;
64367;SDS011;50692;53.314;-6.300;2023-07-29T05:36:55;6.95;;;1.83;;
64367;SDS011;50692;53.314;-6.300;2023-07-29T05:39:41;6.20;;;2.22;;
64367;SDS011;50692;53.314;-6.300;2023-07-29T05:42:27;5.97;;;2.10;;
64367;SDS011;50692;53.314;-6.300;2023-07-29T05:45:13;6.07;;;2.10;;
64367;SDS011;50692;53.314;-6.300;2023-07-29T05:47:58;5.95;;;2.05;;
64367;SDS011;50692;53.314;-6.300;2023-07-29T05:50:44;9.48;;;2.47;;
64367;SDS011;50692;53.314;-6.300;2023-07-29T05:53:30;6.43;;;2.10;;
64367;SDS011;50692;53.314;-6.300;2023-07-29T05:56:16;5.95;;;2.10;;
64367;SDS011;50692;53.314;-6.300;2023-07-29T05:59:02;5.57;;;1.88;;
64367;SDS011;50692;53.314;-6.300;2023-07-29T06:01:48;5.03;;;1.98;;
64367;SDS011;50692;53.314;-6.300;2023-07-29T06:04:34;4.65;;;1.80;;
64367;SDS011;50692;53.314;-6.300;2023-07-29T06:07:20;5.93;;;2.05;;
64367;SDS011;50692;53.314;-6.300;2023-07-29T06:10:06;8.90;;;2.45;;
64367;SDS011;50692;53.314;-6.300;2023-07-29T06:12:53;7.22;;;2.13;;
64367;SDS011;50692;53.314;-6.300;2023-07-29T06:15:39;6.57;;;2.03;;
64367;SDS011;50692;53.314;-6.300;2023-07-29T06:18:24;5.38;;;2.00;;
64367;SDS011;50692;53.314;-6.300;2023-07-29T06:21:10;6.22;;;1.77;;
64367;SDS011;50692;53.314;-6.300;2023-07-29T06:24:02;6.93;;;2.25;;
64367;SDS011;50692;53.314;-6.300;2023-07-29T06:26:48;6.80;;;2.40;;
64367;SDS011;50692;53.314;-6.300;2023-07-29T06:29:34;6.03;;;2.10;;
64367;SDS011;50692;53.314;-6.300;2023-07-29T06:32:20;6.70;;;2.00;;
64367;SDS011;50692;53.314;-6.300;2023-07-29T06:35:05;8.50;;;2.60;;
64367;SDS011;50692;53.314;-6.300;2023-07-29T06:37:52;4.60;;;1.83;;
64367;SDS011;50692;53.314;-6.300;2023-07-29T06:40:37;6.30;;;2.67;;
64367;SDS011;50692;53.314;-6.300;2023-07-29T06:43:23;7.63;;;1.83;;
64367;SDS011;50692;53.314;-6.300;2023-07-29T06:46:09;5.88;;;2.22;;
64367;SDS011;50692;53.314;-6.300;2023-07-29T06:48:55;6.22;;;1.75;;
64367;SDS011;50692;53.314;-6.300;2023-07-29T06:51:40;5.72;;;1.80;;
64367;SDS011;50692;53.314;-6.300;2023-07-29T06:54:26;5.78;;;1.70;;
64367;SDS011;50692;53.314;-6.300;2023-07-29T06:57:12;5.88;;;1.95;;
64367;SDS011;50692;53.314;-6.300;2023-07-29T06:59:58;5.95;;;2.03;;
64367;SDS011;50692;53.314;-6.300;2023-07-29T07:02:44;4.55;;;1.80;;
64367;SDS011;50692;53.314;-6.300;2023-07-29T07:05:29;4.57;;;1.38;;
64367;SDS011;50692;53.314;-6.300;2023-07-29T07:08:15;5.28;;;1.70;;
64367;SDS011;50692;53.314;-6.300;2023-07-29T07:11:01;4.63;;;2.35;;
64367;SDS011;50692;53.314;-6.300;2023-07-29T07:13:47;3.53;;;2.17;;
64367;SDS011;50692;53.314;-6.300;2023-07-29T07:16:33;5.43;;;1.70;;
64367;SDS011;50692;53.314;-6.300;2023-07-29T07:19:20;6.57;;;1.85;;
64367;SDS011;50692;53.314;-6.300;2023-07-29T07:22:06;7.28;;;2.10;;
64367;SDS011;50692;53.314;-6.300;2023-07-29T07:24:52;6.40;;;1.85;;
64367;SDS011;50692;53.314;-6.300;2023-07-29T07:27:38;6.35;;;1.98;;
64367;SDS011;50692;53.314;-6.300;2023-07-29T07:30:23;4.60;;;1.42;;
64367;SDS011;50692;53.314;-6.300;2023-07-29T07:33:09;5.45;;;1.90;;
64367;SDS011;50692;53.314;-6.300;2023-07-29T07:35:55;7.63;;;1.70;;
64367;SDS011;50692;53.314;-6.300;2023-07-29T07:38:41;6.05;;;2.10;;
64367;SDS011;50692;53.314;-6.300;2023-07-29T07:41:27;5.05;;;1.50;;
64367;SDS011;50692;53.314;-6.300;2023-07-29T07:44:13;8.45;;;2.47;;
64367;SDS011;50692;53.314;-6.300;2023-07-29T07:47:00;5.72;;;1.65;;
64367;SDS011;50692;53.314;-6.300;2023-07-29T07:49:46;6.68;;;1.80;;
64367;SDS011;50692;53.314;-6.300;2023-07-29T07:52:34;5.68;;;2.05;;
64367;SDS011;50692;53.314;-6.300;2023-07-29T07:55:20;3.38;;;1.60;;
64367;SDS011;50692;53.314;-6.300;2023-07-29T07:58:06;5.57;;;1.80;;
64367;SDS011;50692;53.314;-6.300;2023-07-29T08:00:51;6.80;;;2.03;;
64367;SDS011;50692;53.314;-6.300;2023-07-29T08:03:37;4.43;;;1.58;;
64367;SDS011;50692;53.314;-6.300;2023-07-29T08:06:23;4.50;;;1.67;;
64367;SDS011;50692;53.314;-6.300;2023-07-29T08:09:10;3.97;;;1.80;;
64367;SDS011;50692;53.314;-6.300;2023-07-29T08:11:55;5.35;;;1.60;;
64367;SDS011;50692;53.314;-6.300;2023-07-29T08:14:41;6.78;;;1.83;;
64367;SDS011;50692;53.314;-6.300;2023-07-29T08:17:27;4.28;;;2.00;;
64367;SDS011;50692;53.314;-6.300;2023-07-29T08:20:13;5.45;;;2.40;;
64367;SDS011;50692;53.314;-6.300;2023-07-29T08:22:59;6.28;;;2.20;;
64367;SDS011;50692;53.314;-6.300;2023-07-29T08:25:45;4.60;;;1.88;;
64367;SDS011;50692;53.314;-6.300;2023-07-29T08:28:37;5.75;;;1.70;;
64367;SDS011;50692;53.314;-6.300;2023-07-29T08:31:24;4.57;;;1.40;;
64367;SDS011;50692;53.314;-6.300;2023-07-29T08:34:10;4.00;;;1.92;;
64367;SDS011;50692;53.314;-6.300;2023-07-29T08:36:56;4.40;;;1.70;;
64367;SDS011;50692;53.314;-6.300;2023-07-29T08:39:42;5.82;;;1.60;;
64367;SDS011;50692;53.314;-6.300;2023-07-29T08:42:29;5.07;;;1.75;;
64367;SDS011;50692;53.314;-6.300;2023-07-29T08:45:17;6.53;;;1.67;;
64367;SDS011;50692;53.314;-6.300;2023-07-29T08:48:05;7.25;;;2.05;;
64367;SDS011;50692;53.314;-6.300;2023-07-29T08:50:55;6.07;;;1.60;;
64367;SDS011;50692;53.314;-6.300;2023-07-29T08:53:42;3.45;;;1.70;;
64367;SDS011;50692;53.314;-6.300;2023-07-29T08:56:28;5.57;;;2.40;;
64367;SDS011;50692;53.314;-6.300;2023-07-29T08:59:15;4.32;;;1.45;;
64367;SDS011;50692;53.314;-6.300;2023-07-29T09:02:02;5.38;;;1.90;;
64367;SDS011;50692;53.314;-6.300;2023-07-29T09:04:48;5.60;;;1.80;;
64367;SDS011;50692;53.314;-6.300;2023-07-29T09:07:34;5.32;;;1.70;;
64367;SDS011;50692;53.314;-6.300;2023-07-29T09:10:22;3.75;;;1.60;;
64367;SDS011;50692;53.314;-6.300;2023-07-29T09:13:08;4.43;;;1.70;;
64367;SDS011;50692;53.314;-6.300;2023-07-29T09:15:55;3.75;;;1.35;;
64367;SDS011;50692;53.314;-6.300;2023-07-29T09:18:42;4.22;;;1.65;;
64367;SDS011;50692;53.314;-6.300;2023-07-29T09:21:28;3.88;;;1.60;;
64367;SDS011;50692;53.314;-6.300;2023-07-29T09:24:18;6.03;;;1.77;;
64367;SDS011;50692;53.314;-6.300;2023-07-29T09:27:06;5.75;;;2.00;;
64367;SDS011;50692;53.314;-6.300;2023-07-29T09:29:52;4.43;;;1.40;;
64367;SDS011;50692;53.314;-6.300;2023-07-29T09:32:38;5.88;;;1.60;;
64367;SDS011;50692;53.314;-6.300;2023-07-29T09:35:28;6.43;;;1.70;;
64367;SDS011;50692;53.314;-6.300;2023-07-29T09:38:15;6.13;;;1.58;;
64367;SDS011;50692;53.314;-6.300;2023-07-29T09:41:01;4.82;;;1.45;;
64367;SDS011;50692;53.314;-6.300;2023-07-29T09:43:47;5.18;;;1.48;;
64367;SDS011;50692;53.314;-6.300;2023-07-29T09:46:39;3.53;;;1.77;;
64367;SDS011;50692;53.314;-6.300;2023-07-29T09:49:25;4.93;;;1.80;;
64367;SDS011;50692;53.314;-6.300;2023-07-29T09:52:11;5.53;;;1.50;;
64367;SDS011;50692;53.314;-6.300;2023-07-29T09:54:57;5.93;;;1.60;;
64367;SDS011;50692;53.314;-6.300;2023-07-29T09:57:43;7.47;;;2.28;;
64367;SDS011;50692;53.314;-6.300;2023-07-29T10:00:30;5.97;;;1.70;;
64367;SDS011;50692;53.314;-6.300;2023-07-29T10:03:16;5.53;;;2.00;;
64367;SDS011;50692;53.314;-6.300;2023-07-29T10:06:04;6.03;;;2.38;;
64367;SDS011;50692;53.314;-6.300;2023-07-29T10:08:51;4.13;;;1.70;;
64367;SDS011;50692;53.314;-6.300;2023-07-29T10:11:37;3.55;;;1.20;;
64367;SDS011;50692;53.314;-6.300;2023-07-29T10:14:24;5.15;;;1.80;;
64367;SDS011;50692;53.314;-6.300;2023-07-29T10:17:14;3.72;;;1.30;;
64367;SDS011;50692;53.314;-6.300;2023-07-29T10:20:01;3.63;;;1.58;;
64367;SDS011;50692;53.314;-6.300;2023-07-29T10:22:49;2.38;;;1.33;;
64367;SDS011;50692;53.314;-6.300;2023-07-29T10:25:38;2.97;;;1.20;;
64367;SDS011;50692;53.314;-6.300;2023-07-29T10:31:17;4.32;;;1.45;;
64367;SDS011;50692;53.314;-6.300;2023-07-29T10:34:05;4.40;;;1.77;;
64367;SDS011;50692;53.314;-6.300;2023-07-29T10:36:52;5.47;;;1.50;;
64367;SDS011;50692;53.314;-6.300;2023-07-29T10:39:39;4.88;;;1.60;;
64367;SDS011;50692;53.314;-6.300;2023-07-29T10:42:25;4.35;;;1.60;;
64367;SDS011;50692;53.314;-6.300;2023-07-29T10:45:17;3.05;;;1.08;;
64367;SDS011;50692;53.314;-6.300;2023-07-29T10:48:09;5.60;;;1.42;;
64367;SDS011;50692;53.314;-6.300;2023-07-29T10:54:21;3.33;;;1.10;;
64367;SDS011;50692;53.314;-6.300;2023-07-29T10:57:07;2.47;;;0.95;;
64367;SDS011;50692;53.314;-6.300;2023-07-29T10:59:53;3.80;;;1.40;;
64367;SDS011;50692;53.314;-6.300;2023-07-29T11:02:46;2.08;;;1.30;;
64367;SDS011;50692;53.314;-6.300;2023-07-29T11:05:46;3.78;;;1.17;;
64367;SDS011;50692;53.314;-6.300;2023-07-29T11:08:35;4.43;;;1.67;;
64367;SDS011;50692;53.314;-6.300;2023-07-29T11:11:21;2.05;;;1.13;;
64367;SDS011;50692;53.314;-6.300;2023-07-29T11:14:07;1.92;;;0.80;;
64367;SDS011;50692;53.314;-6.300;2023-07-29T11:16:53;1.58;;;0.80;;
64367;SDS011;50692;53.314;-6.300;2023-07-29T11:19:39;2.13;;;0.70;;
64367;SDS011;50692;53.314;-6.300;2023-07-29T11:22:26;3.35;;;0.93;;
64367;SDS011;50692;53.314;-6.300;2023-07-29T11:25:14;1.52;;;0.70;;
64367;SDS011;50692;53.314;-6.300;2023-07-29T11:28:01;3.47;;;0.90;;
64367;SDS011;50692;53.314;-6.300;2023-07-29T11:30:49;2.22;;;0.80;;
64367;SDS011;50692;53.314;-6.300;2023-07-29T11:33:38;3.80;;;0.98;;
64367;SDS011;50692;53.314;-6.300;2023-07-29T11:36:24;2.88;;;1.23;;
64367;SDS011;50692;53.314;-6.300;2023-07-29T11:39:10;4.18;;;0.80;;
64367;SDS011;50692;53.314;-6.300;2023-07-29T11:41:57;3.60;;;1.23;;
64367;SDS011;50692;53.314;-6.300;2023-07-29T11:44:42;4.15;;;1.10;;
64367;SDS011;50692;53.314;-6.300;2023-07-29T11:47:29;2.67;;;1.02;;
64367;SDS011;50692;53.314;-6.300;2023-07-29T11:50:16;2.05;;;1.08;;
64367;SDS011;50692;53.314;-6.300;2023-07-29T11:53:02;1.67;;;0.82;;
64367;SDS011;50692;53.314;-6.300;2023-07-29T11:55:50;1.95;;;1.00;;
64367;SDS011;50692;53.314;-6.300;2023-07-29T11:58:38;3.92;;;0.95;;
64367;SDS011;50692;53.314;-6.300;2023-07-29T12:01:24;1.85;;;1.10;;
64367;SDS011;50692;53.314;-6.300;2023-07-29T12:04:09;1.92;;;1.10;;
64367;SDS011;50692;53.314;-6.300;2023-07-29T12:06:56;3.47;;;1.65;;
64367;SDS011;50692;53.314;-6.300;2023-07-29T12:09:42;3.08;;;1.30;;
64367;SDS011;50692;53.314;-6.300;2023-07-29T12:12:28;2.60;;;1.00;;
64367;SDS011;50692;53.314;-6.300;2023-07-29T12:15:24;3.83;;;1.20;;
64367;SDS011;50692;53.314;-6.300;2023-07-29T12:18:11;3.10;;;1.45;;
64367;SDS011;50692;53.314;-6.300;2023-07-29T12:20:57;3.92;;;1.35;;
64367;SDS011;50692;53.314;-6.300;2023-07-29T12:23:43;2.15;;;1.00;;
64367;SDS011;50692;53.314;-6.300;2023-07-29T12:26:29;2.75;;;1.20;;
64367;SDS011;50692;53.314;-6.300;2023-07-29T12:29:16;2.35;;;1.00;;
64367;SDS011;50692;53.314;-6.300;2023-07-29T12:32:05;3.90;;;1.30;;
64367;SDS011;50692;53.314;-6.300;2023-07-29T12:34:52;2.72;;;0.93;;
64367;SDS011;50692;53.314;-6.300;2023-07-29T12:37:38;3.25;;;1.42;;
64367;SDS011;50692;53.314;-6.300;2023-07-29T12:40:28;4.97;;;1.10;;
64367;SDS011;50692;53.314;-6.300;2023-07-29T12:43:14;3.42;;;1.25;;
64367;SDS011;50692;53.314;-6.300;2023-07-29T12:45:59;3.83;;;1.38;;
64367;SDS011;50692;53.314;-6.300;2023-07-29T12:48:45;4.18;;;1.30;;
64367;SDS011;50692;53.314;-6.300;2023-07-29T12:51:31;3.97;;;1.25;;
64367;SDS011;50692;53.314;-6.300;2023-07-29T12:54:17;3.40;;;1.20;;
64367;SDS011;50692;53.314;-6.300;2023-07-29T12:57:03;1.35;;;0.70;;
64367;SDS011;50692;53.314;-6.300;2023-07-29T12:59:49;3.28;;;1.00;;
64367;SDS011;50692;53.314;-6.300;2023-07-29T13:02:35;4.93;;;1.17;;
64367;SDS011;50692;53.314;-6.300;2023-07-29T13:05:20;2.80;;;1.00;;
64367;SDS011;50692;53.314;-6.300;2023-07-29T13:08:06;3.63;;;1.23;;
64367;SDS011;50692;53.314;-6.300;2023-07-29T13:10:52;3.85;;;1.40;;
64367;SDS011;50692;53.314;-6.300;2023-07-29T13:13:38;5.78;;;1.40;;
64367;SDS011;50692;53.314;-6.300;2023-07-29T13:16:24;5.93;;;1.90;;
64367;SDS011;50692;53.314;-6.300;2023-07-29T13:19:10;3.55;;;1.33;;
64367;SDS011;50692;53.314;-6.300;2023-07-29T13:21:55;4.45;;;1.50;;
64367;SDS011;50692;53.314;-6.300;2023-07-29T13:24:41;4.10;;;1.90;;
64367;SDS011;50692;53.314;-6.300;2023-07-29T13:27:27;3.47;;;1.65;;
64367;SDS011;50692;53.314;-6.300;2023-07-29T13:30:14;2.40;;;1.30;;
64367;SDS011;50692;53.314;-6.300;2023-07-29T13:32:59;5.78;;;1.50;;
64367;SDS011;50692;53.314;-6.300;2023-07-29T13:35:46;3.90;;;1.30;;
64367;SDS011;50692;53.314;-6.300;2023-07-29T13:38:32;4.72;;;1.40;;
64367;SDS011;50692;53.314;-6.300;2023-07-29T13:41:18;2.45;;;0.85;;
64367;SDS011;50692;53.314;-6.300;2023-07-29T13:44:04;2.55;;;0.80;;
64367;SDS011;50692;53.314;-6.300;2023-07-29T13:46:50;3.20;;;0.90;;
64367;SDS011;50692;53.314;-6.300;2023-07-29T13:49:35;0.88;;;0.68;;
64367;SDS011;50692;53.314;-6.300;2023-07-29T13:52:21;1.95;;;0.80;;
64367;SDS011;50692;53.314;-6.300;2023-07-29T13:55:07;3.40;;;0.80;;
64367;SDS011;50692;53.314;-6.300;2023-07-29T13:57:53;3.92;;;1.08;;
64367;SDS011;50692;53.314;-6.300;2023-07-29T14:00:40;2.58;;;0.98;;
64367;SDS011;50692;53.314;-6.300;2023-07-29T14:03:25;2.67;;;0.90;;
64367;SDS011;50692;53.314;-6.300;2023-07-29T14:06:11;3.25;;;1.38;;
64367;SDS011;50692;53.314;-6.300;2023-07-29T14:08:57;3.42;;;1.05;;
64367;SDS011;50692;53.314;-6.300;2023-07-29T14:11:43;2.83;;;1.30;;
64367;SDS011;50692;53.314;-6.300;2023-07-29T14:14:29;4.35;;;1.00;;
64367;SDS011;50692;53.314;-6.300;2023-07-29T14:17:14;2.58;;;0.98;;
64367;SDS011;50692;53.314;-6.300;2023-07-29T14:20:00;3.53;;;1.45;;
64367;SDS011;50692;53.314;-6.300;2023-07-29T14:22:46;3.70;;;1.27;;
64367;SDS011;50692;53.314;-6.300;2023-07-29T14:25:33;3.35;;;1.10;;
64367;SDS011;50692;53.314;-6.300;2023-07-29T14:28:18;2.13;;;1.13;;
64367;SDS011;50692;53.314;-6.300;2023-07-29T14:31:04;3.28;;;1.33;;
64367;SDS011;50692;53.314;-6.300;2023-07-29T14:33:50;3.20;;;1.42;;
64367;SDS011;50692;53.314;-6.300;2023-07-29T14:36:36;4.22;;;1.65;;
64367;SDS011;50692;53.314;-6.300;2023-07-29T14:39:22;5.25;;;1.30;;
64367;SDS011;50692;53.314;-6.300;2023-07-29T14:42:08;2.65;;;1.42;;
64367;SDS011;50692;53.314;-6.300;2023-07-29T14:44:54;6.05;;;1.45;;
64367;SDS011;50692;53.314;-6.300;2023-07-29T14:47:40;3.55;;;1.45;;
64367;SDS011;50692;53.314;-6.300;2023-07-29T14:50:26;5.07;;;1.35;;
64367;SDS011;50692;53.314;-6.300;2023-07-29T14:53:12;4.65;;;1.30;;
64367;SDS011;50692;53.314;-6.300;2023-07-29T14:55:58;3.22;;;1.20;;
64367;SDS011;50692;53.314;-6.300;2023-07-29T14:58:44;3.33;;;1.20;;
64367;SDS011;50692;53.314;-6.300;2023-07-29T15:01:30;3.10;;;1.50;;
64367;SDS011;50692;53.314;-6.300;2023-07-29T15:04:17;3.45;;;1.20;;
64367;SDS011;50692;53.314;-6.300;2023-07-29T15:07:03;3.08;;;1.35;;
64367;SDS011;50692;53.314;-6.300;2023-07-29T15:09:49;3.75;;;1.10;;
64367;SDS011;50692;53.314;-6.300;2023-07-29T15:12:35;2.85;;;1.02;;
64367;SDS011;50692;53.314;-6.300;2023-07-29T15:15:21;3.35;;;1.40;;
64367;SDS011;50692;53.314;-6.300;2023-07-29T15:18:07;3.58;;;1.17;;
64367;SDS011;50692;53.314;-6.300;2023-07-29T15:20:53;3.08;;;1.27;;
64367;SDS011;50692;53.314;-6.300;2023-07-29T15:23:39;4.43;;;1.83;;
64367;SDS011;50692;53.314;-6.300;2023-07-29T15:26:25;4.70;;;1.23;;
64367;SDS011;50692;53.314;-6.300;2023-07-29T15:29:11;4.43;;;1.63;;
64367;SDS011;50692;53.314;-6.300;2023-07-29T15:31:57;3.75;;;1.15;;
64367;SDS011;50692;53.314;-6.300;2023-07-29T15:34:43;4.10;;;1.48;;
64367;SDS011;50692;53.314;-6.300;2023-07-29T15:37:28;2.75;;;1.30;;
64367;SDS011;50692;53.314;-6.300;2023-07-29T15:40:14;3.72;;;1.13;;
64367;SDS011;50692;53.314;-6.300;2023-07-29T15:43:00;4.43;;;1.60;;
64367;SDS011;50692;53.314;-6.300;2023-07-29T15:45:46;4.35;;;1.33;;
64367;SDS011;50692;53.314;-6.300;2023-07-29T15:48:32;4.70;;;1.73;;
64367;SDS011;50692;53.314;-6.300;2023-07-29T15:51:17;3.63;;;1.52;;
64367;SDS011;50692;53.314;-6.300;2023-07-29T15:54:03;5.70;;;1.67;;
64367;SDS011;50692;53.314;-6.300;2023-07-29T15:56:49;2.80;;;1.25;;
64367;SDS011;50692;53.314;-6.300;2023-07-29T15:59:35;4.65;;;1.65;;
64367;SDS011;50692;53.314;-6.300;2023-07-29T16:02:21;4.50;;;1.75;;
64367;SDS011;50692;53.314;-6.300;2023-07-29T16:05:07;2.40;;;1.17;;
64367;SDS011;50692;53.314;-6.300;2023-07-29T16:07:53;4.75;;;1.45;;
64367;SDS011;50692;53.314;-6.300;2023-07-29T16:10:38;3.75;;;1.27;;
64367;SDS011;50692;53.314;-6.300;2023-07-29T16:13:24;4.82;;;1.23;;
64367;SDS011;50692;53.314;-6.300;2023-07-29T16:16:10;4.15;;;1.30;;
64367;SDS011;50692;53.314;-6.300;2023-07-29T16:18:56;1.90;;;1.17;;
64367;SDS011;50692;53.314;-6.300;2023-07-29T16:21:42;3.15;;;1.27;;
64367;SDS011;50692;53.314;-6.300;2023-07-29T16:24:27;4.43;;;1.40;;
64367;SDS011;50692;53.314;-6.300;2023-07-29T16:27:13;3.35;;;1.20;;
64367;SDS011;50692;53.314;-6.300;2023-07-29T16:30:00;3.35;;;1.20;;
64367;SDS011;50692;53.314;-6.300;2023-07-29T16:32:47;3.70;;;1.25;;
64367;SDS011;50692;53.314;-6.300;2023-07-29T16:35:33;5.47;;;1.50;;
64367;SDS011;50692;53.314;-6.300;2023-07-29T16:38:19;5.03;;;1.50;;